Time;durP1;ratioP1;P1;durP2;ratioP2;P2;SDS_P1;SDS_P2;PMS_P1;PMS_P2;Temp;Humidity;BMP_temperature;BMP_pressure;BME280_temperature;BME280_humidity;BME280_pressure;Samples;Min_cycle;Max_cycle;Signal;HPM_P1;HPM_P2
2022/09/20 00:00:24;;;;;;;9.05;2.22;;;11.50;99.90;;;;;;6183962;23;20008;-77
2022/09/20 00:02:49;;;;;;;8.50;2.20;;;11.50;99.90;;;;;;6183638;23;20465;-76
2022/09/20 00:05:15;;;;;;;8.02;2.63;;;11.50;99.90;;;;;;6183831;23;20009;-77
2022/09/20 00:07:43;;;;;;;9.45;2.45;;;11.40;99.90;;;;;;6184046;23;20037;-76
2022/09/20 00:10:09;;;;;;;8.68;2.33;;;11.40;99.90;;;;;;6181336;23;20331;-76
2022/09/20 00:12:34;;;;;;;6.40;2.45;;;11.40;99.90;;;;;;6183875;23;20017;-77
2022/09/20 00:15:00;;;;;;;11.23;3.33;;;11.30;99.90;;;;;;6183254;23;20363;-77
2022/09/20 00:17:25;;;;;;;10.48;3.08;;;11.20;99.90;;;;;;6183618;23;20493;-76
2022/09/20 00:19:51;;;;;;;9.95;3.05;;;11.80;99.90;;;;;;6182280;23;20334;-77
2022/09/20 00:22:16;;;;;;;13.30;2.55;;;11.30;99.90;;;;;;6181748;23;20434;-77
2022/09/20 00:24:42;;;;;;;9.05;2.40;;;11.30;99.90;;;;;;6182922;23;19997;-77
2022/09/20 00:27:07;;;;;;;4.00;2.42;;;11.10;99.90;;;;;;6182804;23;20376;-76
2022/09/20 00:29:33;;;;;;;5.35;2.00;;;11.40;99.90;;;;;;6183593;23;20001;-77
2022/09/20 00:31:58;;;;;;;7.47;2.67;;;11.40;99.90;;;;;;6183210;23;19997;-76
2022/09/20 00:37:08;;;;;;;11.35;2.70;;;11.40;99.90;;;;;;6183361;23;20081;-76
2022/09/20 00:39:33;;;;;;;8.52;2.13;;;11.50;99.90;;;;;;6184063;23;20021;-76
2022/09/20 00:41:59;;;;;;;12.32;2.13;;;11.50;99.90;;;;;;6183968;23;20002;-77
2022/09/20 00:45:00;;;;;;;9.65;2.15;;;11.50;99.90;;;;;;6187264;23;20374;-77
2022/09/20 00:47:46;;;;;;;6.70;1.75;;;11.40;99.90;;;;;;6185049;23;20001;-77
2022/09/20 00:50:44;;;;;;;6.30;1.67;;;11.40;99.90;;;;;;6183913;23;20001;-76
2022/09/20 00:53:27;;;;;;;6.32;1.88;;;11.40;99.90;;;;;;6184424;23;20005;-76
2022/09/20 00:56:02;;;;;;;6.57;2.05;;;11.40;99.90;;;;;;6186480;23;20009;-76
2022/09/20 00:58:31;;;;;;;7.45;1.70;;;11.30;99.90;;;;;;6184268;23;20005;-77
2022/09/20 01:00:58;;;;;;;6.75;1.63;;;11.30;99.90;;;;;;6182432;23;20049;-77
2022/09/20 01:03:30;;;;;;;6.00;1.83;;;11.50;99.90;;;;;;6182082;23;20009;-77
2022/09/20 01:05:58;;;;;;;6.30;2.22;;;11.40;99.90;;;;;;6182810;23;19997;-77
2022/09/20 01:08:24;;;;;;;9.38;1.88;;;11.40;99.90;;;;;;6182867;23;20034;-77
2022/09/20 01:10:51;;;;;;;8.23;2.33;;;11.40;99.90;;;;;;6182921;23;20005;-77
2022/09/20 01:13:16;;;;;;;9.88;3.50;;;11.30;99.90;;;;;;6183152;23;20478;-77
2022/09/20 01:15:45;;;;;;;11.40;1.90;;;11.30;99.90;;;;;;6182899;23;20005;-77
2022/09/20 01:18:12;;;;;;;11.82;2.42;;;11.30;99.90;;;;;;6183368;23;20005;-77
2022/09/20 01:20:41;;;;;;;6.93;2.03;;;11.40;99.90;;;;;;6183269;23;19997;-77
2022/09/20 01:23:27;;;;;;;10.25;2.25;;;11.30;99.90;;;;;;6182093;23;20005;-77
2022/09/20 01:26:01;;;;;;;6.07;1.70;;;11.40;99.90;;;;;;6182724;23;19997;-76
2022/09/20 01:28:28;;;;;;;9.65;1.63;;;11.30;99.90;;;;;;6183139;23;20021;-76
2022/09/20 01:31:14;;;;;;;11.73;2.38;;;11.30;99.90;;;;;;6182626;23;20008;-77
2022/09/20 01:34:05;;;;;;;9.23;2.80;;;11.40;99.90;;;;;;6182307;23;20100;-77
2022/09/20 01:36:38;;;;;;;16.42;2.38;;;11.30;99.90;;;;;;6181903;23;19997;-77
2022/09/20 01:39:41;;;;;;;14.88;2.03;;;11.40;99.90;;;;;;6180357;23;20326;-76
2022/09/20 01:42:12;;;;;;;8.77;1.58;;;11.40;99.90;;;;;;6182075;23;20009;-76
2022/09/20 01:44:58;;;;;;;9.98;1.80;;;11.30;99.90;;;;;;6181902;23;20068;-76
2022/09/20 01:47:54;;;;;;;8.55;2.03;;;11.30;99.90;;;;;;6182724;23;20008;-77
2022/09/20 01:50:57;;;;;;;8.30;2.20;;;11.30;99.90;;;;;;6182481;23;20334;-77
2022/09/20 01:53:37;;;;;;;9.60;2.35;;;11.30;99.90;;;;;;6182724;23;20012;-77
2022/09/20 01:56:25;;;;;;;10.40;2.22;;;11.30;99.90;;;;;;6182582;23;20330;-77
2022/09/20 01:59:17;;;;;;;12.45;2.30;;;11.20;99.90;;;;;;6182730;23;20052;-77
2022/09/20 02:01:52;;;;;;;6.88;2.20;;;11.30;99.90;;;;;;6182510;23;20093;-77
2022/09/20 02:04:55;;;;;;;17.23;2.10;;;11.20;99.90;;;;;;6183233;23;20059;-77
2022/09/20 02:07:37;;;;;;;8.07;2.08;;;11.30;99.90;;;;;;6182218;23;20072;-77
2022/09/20 02:10:20;;;;;;;6.78;1.73;;;11.20;99.90;;;;;;6181819;23;19997;-77
2022/09/20 02:12:54;;;;;;;11.85;1.95;;;11.10;99.90;;;;;;6182239;23;20093;-77
2022/09/20 02:15:56;;;;;;;5.95;2.05;;;11.10;99.90;;;;;;6182517;23;20032;-77
2022/09/20 02:18:36;;;;;;;8.25;2.47;;;11.20;99.90;;;;;;6182284;23;20449;-77
2022/09/20 02:21:08;;;;;;;8.18;3.10;;;11.10;99.90;;;;;;6181901;23;20001;-77
2022/09/20 02:24:03;;;;;;;12.63;2.50;;;11.20;99.90;;;;;;6182857;23;20005;-77
2022/09/20 02:27:09;;;;;;;11.10;2.67;;;11.20;99.90;;;;;;6062528;23;20007;-77
2022/09/20 02:29:57;;;;;;;8.18;2.67;;;11.40;99.90;;;;;;6062704;23;20014;-77
2022/09/20 02:33:07;;;;;;;12.48;3.03;;;11.30;99.90;;;;;;6062841;23;20011;-77
2022/09/20 02:36:04;;;;;;;7.70;2.85;;;11.20;99.90;;;;;;6061945;23;20175;-77
2022/09/20 02:38:36;;;;;;;5.47;1.73;;;11.30;99.90;;;;;;6062740;23;20074;-76
2022/09/20 02:41:22;;;;;;;7.95;2.92;;;11.30;99.90;;;;;;6061815;23;20007;-77
2022/09/20 02:44:07;;;;;;;13.30;3.42;;;11.20;99.90;;;;;;6062265;23;20006;-77
2022/09/20 02:46:41;;;;;;;11.65;3.10;;;11.20;99.90;;;;;;6062284;23;20013;-77
2022/09/20 02:49:21;;;;;;;5.72;2.38;;;11.20;99.90;;;;;;6059145;23;20812;-77
2022/09/20 02:51:57;;;;;;;7.80;2.38;;;11.20;99.90;;;;;;6060954;23;20011;-77
2022/09/20 02:55:01;;;;;;;8.48;3.25;;;11.30;99.90;;;;;;6061963;23;20484;-76
2022/09/20 02:57:48;;;;;;;10.18;3.47;;;11.20;99.90;;;;;;5977071;24;20012;-76
2022/09/20 03:00:27;;;;;;;7.88;2.25;;;11.20;99.90;;;;;;5976672;24;20041;-77
2022/09/20 03:02:56;;;;;;;8.27;3.30;;;11.30;99.90;;;;;;6048078;23;20005;-77
2022/09/20 03:05:52;;;;;;;8.18;3.65;;;11.20;99.90;;;;;;6122142;23;20006;-76
2022/09/20 03:08:23;;;;;;;11.68;3.55;;;11.30;99.90;;;;;;6096880;23;20416;-77
2022/09/20 03:11:37;;;;;;;8.13;2.78;;;11.30;99.90;;;;;;6120068;23;20431;-77
2022/09/20 03:14:12;;;;;;;7.85;3.45;;;11.30;99.90;;;;;;6003338;23;20031;-76
2022/09/20 03:16:57;;;;;;;11.85;3.03;;;11.40;99.90;;;;;;6005454;23;20019;-76
2022/09/20 03:19:42;;;;;;;7.20;2.55;;;11.30;99.90;;;;;;6006241;23;20373;-77
2022/09/20 03:22:38;;;;;;;9.88;3.03;;;11.20;99.90;;;;;;6005787;23;20014;-77
2022/09/20 03:25:18;;;;;;;15.20;5.15;;;11.30;99.90;;;;;;6004563;23;20086;-77
2022/09/20 03:28:13;;;;;;;22.20;3.95;;;11.20;99.90;;;;;;6004462;23;20513;-77
2022/09/20 03:31:09;;;;;;;7.40;2.75;;;11.20;99.90;;;;;;6004493;23;20007;-77
2022/09/20 03:33:40;;;;;;;6.05;3.17;;;11.20;99.90;;;;;;6069954;23;20090;-77
2022/09/20 03:36:44;;;;;;;11.40;3.88;;;11.20;99.90;;;;;;6090349;23;20009;-77
2022/09/20 03:39:44;;;;;;;5.78;2.75;;;11.20;99.90;;;;;;6057562;23;20165;-76
2022/09/20 03:42:21;;;;;;;8.00;3.58;;;10.30;99.90;;;;;;6071312;23;20576;-76
2022/09/20 03:45:04;;;;;;;5.47;3.38;;;11.10;99.90;;;;;;6090056;23;20074;-77
2022/09/20 03:48:10;;;;;;;9.50;3.35;;;11.10;99.90;;;;;;6089774;23;20010;-76
2022/09/20 03:50:48;;;;;;;6.53;2.90;;;11.10;99.90;;;;;;6171869;23;20001;-76
2022/09/20 03:53:32;;;;;;;7.32;3.13;;;11.10;99.90;;;;;;6181798;23;19997;-76
2022/09/20 03:56:00;;;;;;;8.70;3.20;;;11.10;99.90;;;;;;6181321;23;20458;-77
2022/09/20 03:58:44;;;;;;;11.18;3.40;;;11.10;99.90;;;;;;6182051;23;20001;-76
2022/09/20 04:02:08;;;;;;;5.38;3.08;;;11.10;99.90;;;;;;6181781;23;20012;-76
2022/09/20 04:04:57;;;;;;;7.30;3.65;;;11.00;99.90;;;;;;6062532;23;20014;-77
2022/09/20 04:07:42;;;;;;;9.73;3.83;;;11.00;99.90;;;;;;6062263;23;20066;-76
2022/09/20 04:10:15;;;;;;;8.73;3.53;;;11.00;99.90;;;;;;6061645;23;20330;-77
2022/09/20 04:12:59;;;;;;;5.30;3.35;;;10.90;99.90;;;;;;6062128;23;20011;-76
2022/09/20 04:15:57;;;;;;;8.80;3.92;;;11.00;99.90;;;;;;6062079;23;20013;-76
2022/09/20 04:18:42;;;;;;;9.73;5.70;;;10.90;99.90;;;;;;6062065;23;20007;-76
2022/09/20 04:21:26;;;;;;;10.07;3.72;;;10.90;99.90;;;;;;6061642;23;20067;-76
2022/09/20 04:24:13;;;;;;;10.32;3.47;;;10.80;99.90;;;;;;6061581;23;20003;-76
2022/09/20 04:26:45;;;;;;;7.22;3.45;;;10.60;99.90;;;;;;6061671;23;20034;-75
2022/09/20 04:29:47;;;;;;;9.55;3.60;;;10.60;99.90;;;;;;6061546;23;20314;-76
2022/09/20 04:32:49;;;;;;;7.43;3.97;;;10.50;99.90;;;;;;6061417;23;20011;-76
2022/09/20 04:38:16;;;;;;;7.07;3.38;;;10.50;99.90;;;;;;6183044;23;20442;-76
2022/09/20 04:41:10;;;;;;;7.97;3.53;;;10.60;99.90;;;;;;6184267;23;20426;-76
2022/09/20 04:44:13;;;;;;;10.38;3.80;;;10.50;99.90;;;;;;6141198;23;20009;-76
2022/09/20 04:46:40;;;;;;;6.57;3.28;;;10.40;99.90;;;;;;6182873;23;20001;-76
2022/09/20 04:49:32;;;;;;;12.32;2.92;;;10.40;99.90;;;;;;6183339;23;20032;-76
2022/09/20 04:52:25;;;;;;;10.80;3.50;;;10.40;99.90;;;;;;6182935;23;20008;-76
2022/09/20 04:55:20;;;;;;;7.22;3.53;;;10.40;99.90;;;;;;6182944;23;20012;-76
2022/09/20 04:58:16;;;;;;;9.35;3.38;;;10.40;99.90;;;;;;6183320;23;20079;-79
2022/09/20 05:01:04;;;;;;;9.55;3.30;;;10.40;99.90;;;;;;6182818;23;20001;-76
2022/09/20 05:04:06;;;;;;;9.57;3.53;;;10.10;99.90;;;;;;6183451;23;20032;-78
2022/09/20 05:07:03;;;;;;;9.25;3.92;;;10.30;99.90;;;;;;6183862;23;20001;-79
2022/09/20 05:09:32;;;;;;;14.38;4.25;;;10.30;99.90;;;;;;6183470;23;20422;-79
2022/09/20 05:12:16;;;;;;;7.37;4.03;;;10.40;99.90;;;;;;6183027;23;20008;-79
2022/09/20 05:15:07;;;;;;;11.65;4.07;;;10.40;99.90;;;;;;6182711;23;20005;-79
2022/09/20 05:17:59;;;;;;;11.23;4.47;;;10.40;99.90;;;;;;6168955;23;20005;-76
2022/09/20 05:20:34;;;;;;;8.73;3.30;;;10.40;99.90;;;;;;6183701;23;20056;-76
2022/09/20 05:23:06;;;;;;;8.82;3.40;;;10.40;99.90;;;;;;6182102;23;20378;-76
2022/09/20 05:25:46;;;;;;;8.05;3.55;;;10.40;99.90;;;;;;6183907;23;20681;-73
2022/09/20 05:28:34;;;;;;;10.32;3.40;;;10.50;99.90;;;;;;6182992;23;20567;-73
2022/09/20 05:31:39;;;;;;;9.45;3.97;;;10.60;99.90;;;;;;6182463;23;20005;-72
2022/09/20 05:34:47;;;;;;;11.23;4.93;;;10.50;99.90;;;;;;6182940;23;20084;-73
2022/09/20 05:37:59;;;;;;;8.93;3.97;;;10.60;99.90;;;;;;6182939;23;20005;-72
2022/09/20 05:40:50;;;;;;;9.20;3.17;;;10.50;99.90;;;;;;6182322;23;20016;-73
2022/09/20 05:43:29;;;;;;;14.43;3.28;;;10.50;99.90;;;;;;6181934;23;20009;-73
2022/09/20 05:46:26;;;;;;;8.95;3.60;;;10.50;99.90;;;;;;6182482;23;20059;-73
2022/09/20 05:49:17;;;;;;;10.25;3.90;;;10.40;99.90;;;;;;6182343;23;19993;-73
2022/09/20 05:51:51;;;;;;;12.32;4.30;;;10.40;99.90;;;;;;6182971;23;20009;-75
2022/09/20 05:54:46;;;;;;;7.95;3.42;;;10.30;99.90;;;;;;6182795;23;20079;-74
2022/09/20 05:57:50;;;;;;;5.85;3.33;;;10.30;99.90;;;;;;6182676;23;20013;-74
2022/09/20 06:00:21;;;;;;;7.32;4.00;;;10.20;99.90;;;;;;6182731;23;20005;-74
2022/09/20 06:03:26;;;;;;;6.22;3.45;;;10.20;99.90;;;;;;6182491;23;20011;-74
2022/09/20 06:06:03;;;;;;;;;;;10.30;99.90;;;;;;6183170;23;20390;-74
2022/09/20 06:08:59;;;;;;;9.15;3.83;;;10.30;99.90;;;;;;6182250;23;19907;-74
2022/09/20 06:12:02;;;;;;;7.60;3.35;;;10.30;99.90;;;;;;6180926;23;20004;-75
2022/09/20 06:15:04;;;;;;;9.13;2.80;;;10.30;99.90;;;;;;6182622;23;20170;-74
2022/09/20 06:17:37;;;;;;;8.80;4.60;;;10.40;99.90;;;;;;6182035;23;20024;-75
2022/09/20 06:20:17;;;;;;;10.77;4.32;;;10.40;99.90;;;;;;6182500;23;20327;-74
2022/09/20 06:22:46;;;;;;;13.65;4.18;;;10.40;99.90;;;;;;6182585;23;20124;-74
2022/09/20 06:25:20;;;;;;;6.63;4.25;;;10.40;99.90;;;;;;6181913;23;19997;-75
2022/09/20 06:28:07;;;;;;;14.73;4.27;;;10.40;99.90;;;;;;6181052;23;20021;-74
2022/09/20 06:30:38;;;;;;;11.30;4.40;;;10.40;99.90;;;;;;6182000;23;20423;-75
2022/09/20 06:33:15;;;;;;;12.15;4.70;;;10.50;99.90;;;;;;6182016;23;20033;-75
2022/09/20 06:35:50;;;;;;;8.57;4.82;;;10.80;99.90;;;;;;6181660;23;20071;-74
2022/09/20 06:41:27;;;;;;;9.45;5.10;;;11.00;99.90;;;;;;6181225;23;20067;-75
2022/09/20 06:43:59;;;;;;;11.20;4.50;;;11.10;99.90;;;;;;6181475;23;20001;-75
2022/09/20 06:46:34;;;;;;;11.23;4.47;;;11.30;99.90;;;;;;6181789;23;20089;-75
2022/09/20 06:49:00;;;;;;;13.23;5.43;;;11.30;99.90;;;;;;6181433;23;20001;-75
2022/09/20 06:51:28;;;;;;;9.35;4.65;;;11.40;99.90;;;;;;6182148;23;20445;-75
2022/09/20 06:53:55;;;;;;;6.65;4.85;;;11.50;99.90;;;;;;6181689;23;20059;-75
2022/09/20 06:56:24;;;;;;;7.13;4.00;;;11.60;99.90;;;;;;6181765;23;20005;-75
2022/09/20 06:58:51;;;;;;;13.43;4.80;;;11.60;99.90;;;;;;6178540;23;20004;-75
2022/09/20 07:01:17;;;;;;;10.10;4.80;;;11.60;99.90;;;;;;6179781;23;20128;-75
2022/09/20 07:03:43;;;;;;;10.18;5.07;;;11.60;99.90;;;;;;6179021;23;20059;-75
2022/09/20 07:06:10;;;;;;;11.63;4.55;;;11.70;99.90;;;;;;6181041;23;20012;-74
2022/09/20 07:08:35;;;;;;;11.43;5.05;;;11.80;99.90;;;;;;6181443;23;20024;-75
2022/09/20 07:11:07;;;;;;;11.55;4.70;;;11.90;99.90;;;;;;6179284;23;20008;-75
2022/09/20 07:13:33;;;;;;;10.77;4.88;;;12.00;99.90;;;;;;6180843;23;20084;-74
2022/09/20 07:16:03;;;;;;;8.48;3.35;;;12.10;99.90;;;;;;6181308;23;20112;-75
2022/09/20 07:18:30;;;;;;;5.90;3.30;;;12.10;99.90;;;;;;6182138;23;20005;-75
2022/09/20 07:20:57;;;;;;;5.45;2.72;;;13.10;99.90;;;;;;6180178;23;20009;-75
2022/09/20 07:23:27;;;;;;;7.78;3.15;;;12.10;99.90;;;;;;6181576;23;20489;-75
2022/09/20 07:25:53;;;;;;;8.45;2.90;;;12.10;99.90;;;;;;6177830;23;20342;-75
2022/09/20 07:28:19;;;;;;;6.35;2.75;;;12.10;99.90;;;;;;6181498;23;20017;-75
2022/09/20 07:30:46;;;;;;;8.73;2.28;;;12.10;99.90;;;;;;6181565;23;20005;-75
2022/09/20 07:33:18;;;;;;;5.88;2.28;;;12.10;99.90;;;;;;6180502;23;20013;-75
2022/09/20 07:35:44;;;;;;;7.60;2.85;;;12.20;99.90;;;;;;6180853;23;20327;-75
2022/09/20 07:38:11;;;;;;;7.55;2.95;;;12.30;99.90;;;;;;6181814;23;20088;-75
2022/09/20 07:40:36;;;;;;;11.07;2.50;;;12.40;99.90;;;;;;6181396;23;20002;-75
2022/09/20 07:43:02;;;;;;;9.60;2.85;;;12.50;99.90;;;;;;6178686;23;20005;-75
2022/09/20 07:45:28;;;;;;;10.55;2.13;;;12.60;99.90;;;;;;6180467;23;20008;-75
2022/09/20 07:47:55;;;;;;;15.63;3.65;;;12.60;99.90;;;;;;6179811;23;20001;-75
2022/09/20 07:50:21;;;;;;;6.45;2.60;;;12.70;99.90;;;;;;6181890;23;20330;-75
2022/09/20 07:52:47;;;;;;;7.13;2.80;;;12.70;99.90;;;;;;6180820;23;20039;-75
2022/09/20 07:55:12;;;;;;;9.93;3.05;;;12.70;99.90;;;;;;6180874;23;20339;-75
2022/09/20 07:57:38;;;;;;;14.30;2.72;;;12.70;99.90;;;;;;6179295;23;20423;-75
2022/09/20 08:00:06;;;;;;;7.80;3.45;;;12.70;99.90;;;;;;6181107;23;19997;-75
2022/09/20 08:02:32;;;;;;;6.35;2.33;;;12.60;99.90;;;;;;6180736;23;20056;-74
2022/09/20 08:04:58;;;;;;;6.55;2.90;;;12.60;99.90;;;;;;6180806;23;20001;-75
2022/09/20 08:07:23;;;;;;;9.73;3.28;;;12.60;99.90;;;;;;6182042;23;20009;-75
2022/09/20 08:09:49;;;;;;;8.35;3.45;;;12.50;99.90;;;;;;6179355;23;20004;-75
2022/09/20 08:12:15;;;;;;;8.15;3.17;;;12.50;99.90;;;;;;6181458;23;20016;-75
2022/09/20 08:14:40;;;;;;;5.80;3.38;;;12.50;99.90;;;;;;6182974;23;20442;-75
2022/09/20 08:17:06;;;;;;;4.88;2.20;;;12.40;99.90;;;;;;6182443;23;19997;-75
2022/09/20 08:19:31;;;;;;;5.82;2.90;;;12.40;99.90;;;;;;6181291;23;20079;-75
2022/09/20 08:21:57;;;;;;;6.60;2.80;;;12.60;99.90;;;;;;6180870;23;20062;-75
2022/09/20 08:24:25;;;;;;;9.05;4.07;;;12.60;99.90;;;;;;6182897;23;20371;-75
2022/09/20 08:26:50;;;;;;;5.55;3.60;;;12.60;99.90;;;;;;6182828;23;20376;-75
2022/09/20 08:29:16;;;;;;;10.27;4.07;;;12.70;99.90;;;;;;6182340;23;20009;-75
2022/09/20 08:31:42;;;;;;;11.70;3.58;;;12.70;99.90;;;;;;6179881;23;20012;-75
2022/09/20 08:34:10;;;;;;;9.50;2.88;;;12.90;99.90;;;;;;6182424;23;20431;-75
2022/09/20 08:36:40;;;;;;;6.55;1.92;;;13.10;99.90;;;;;;6183325;23;20012;-75
2022/09/20 08:39:06;;;;;;;7.90;1.80;;;13.40;99.90;;;;;;6181922;23;20012;-75
2022/09/20 08:42:01;;;;;;;6.13;1.42;;;13.60;99.90;;;;;;6180761;23;20088;-74
2022/09/20 08:44:28;;;;;;;;;;;13.90;99.90;;;;;;6168006;23;20076;-75
2022/09/20 08:47:20;;;;;;;6.38;1.50;;;13.90;99.90;;;;;;6182754;23;19904;-75
2022/09/20 08:49:45;;;;;;;6.40;1.10;;;14.00;99.90;;;;;;6182639;23;20005;-75
2022/09/20 08:52:17;;;;;;;4.93;0.90;;;14.10;99.90;;;;;;6180444;23;20009;-75
2022/09/20 08:54:43;;;;;;;4.47;0.93;;;14.10;99.90;;;;;;6182554;23;20008;-74
2022/09/20 08:57:16;;;;;;;5.85;1.20;;;14.10;99.90;;;;;;6182587;23;20112;-75
2022/09/20 08:59:42;;;;;;;3.65;1.25;;;14.20;99.90;;;;;;6182526;23;20081;-75
2022/09/20 09:02:15;;;;;;;2.97;0.77;;;14.20;99.90;;;;;;6180806;23;20037;-74
2022/09/20 09:04:42;;;;;;;3.90;1.00;;;14.30;99.90;;;;;;6180965;23;20411;-75
2022/09/20 09:07:12;;;;;;;5.10;1.33;;;14.30;99.90;;;;;;6181739;23;20590;-75
2022/09/20 09:09:40;;;;;;;4.95;0.90;;;14.40;99.90;;;;;;6180576;23;20001;-75
2022/09/20 09:12:13;;;;;;;3.53;0.50;;;14.50;99.90;;;;;;6180984;23;20008;-74
2022/09/20 09:14:48;;;;;;;6.53;1.13;;;14.40;99.90;;;;;;6180711;23;20008;-75
2022/09/20 09:17:17;;;;;;;3.97;0.60;;;14.10;99.90;;;;;;6180406;23;20001;-74
2022/09/20 09:19:51;;;;;;;5.65;0.82;;;14.40;99.90;;;;;;6181604;23;19997;-75
2022/09/20 09:22:34;;;;;;;4.22;0.65;;;14.30;99.90;;;;;;6180061;23;20016;-74
2022/09/20 09:25:22;;;;;;;5.90;1.65;;;14.20;99.90;;;;;;6180690;23;20007;-75
2022/09/20 09:27:54;;;;;;;3.90;0.90;;;14.30;99.90;;;;;;6181559;23;20020;-74
2022/09/20 09:30:25;;;;;;;6.30;0.90;;;14.30;99.90;;;;;;6182397;23;20001;-74
2022/09/20 09:32:52;;;;;;;2.88;0.63;;;14.20;99.90;;;;;;6180944;23;20005;-74
2022/09/20 09:35:28;;;;;;;2.47;0.90;;;14.30;99.90;;;;;;6179944;23;20040;-75
2022/09/20 09:37:59;;;;;;;3.60;0.95;;;14.40;99.90;;;;;;6180977;23;20001;-75
2022/09/20 09:40:26;;;;;;;4.13;0.80;;;14.30;99.90;;;;;;6182247;23;20379;-75
2022/09/20 09:42:59;;;;;;;3.05;0.90;;;14.60;99.90;;;;;;6180805;23;20426;-74
2022/09/20 09:45:29;;;;;;;3.47;0.80;;;14.60;99.90;;;;;;6182751;23;20009;-74
2022/09/20 09:47:56;;;;;;;6.75;0.90;;;14.70;99.90;;;;;;6180097;23;20058;-75
2022/09/20 09:50:29;;;;;;;6.38;0.90;;;14.80;99.90;;;;;;6181605;23;20080;-75
2022/09/20 09:53:15;;;;;;;6.93;0.73;;;14.80;99.90;;;;;;6180814;23;20123;-74
2022/09/20 09:55:51;;;;;;;4.55;0.75;;;14.80;99.90;;;;;;6182064;23;20008;-75
2022/09/20 09:58:26;;;;;;;2.67;0.70;;;15.00;99.90;;;;;;6180502;23;20083;-74
2022/09/20 10:00:54;;;;;;;5.13;1.05;;;15.00;99.90;;;;;;6182344;23;20043;-74
2022/09/20 10:03:22;;;;;;;5.43;1.30;;;14.90;99.90;;;;;;6181874;23;20005;-74
2022/09/20 10:06:20;;;;;;;4.40;1.30;;;14.80;99.90;;;;;;6181413;23;20076;-75
2022/09/20 10:08:58;;;;;;;3.97;0.90;;;14.70;99.90;;;;;;6180970;23;20033;-75
2022/09/20 10:11:27;;;;;;;6.50;1.38;;;14.60;99.90;;;;;;6181241;23;20016;-75
2022/09/20 10:14:29;;;;;;;3.85;0.90;;;14.50;99.90;;;;;;6181275;23;20005;-74
2022/09/20 10:17:16;;;;;;;2.63;0.60;;;14.60;99.90;;;;;;6181224;23;20001;-74
2022/09/20 10:19:44;;;;;;;3.75;1.15;;;14.80;99.90;;;;;;6180766;23;20470;-74
2022/09/20 10:22:10;;;;;;;4.32;0.80;;;14.90;99.90;;;;;;6180087;23;20001;-74
2022/09/20 10:25:17;;;;;;;2.42;0.52;;;15.10;99.90;;;;;;6182059;23;20068;-74
2022/09/20 10:27:58;;;;;;;7.82;0.70;;;15.40;99.90;;;;;;6181614;23;20451;-74
2022/09/20 10:30:39;;;;;;;1.60;0.90;;;15.70;99.90;;;;;;6181305;23;20076;-74
2022/09/20 10:33:11;;;;;;;4.43;0.98;;;15.60;99.90;;;;;;6179607;23;20021;-74
2022/09/20 10:36:01;;;;;;;2.83;0.68;;;15.70;99.90;;;;;;6179759;23;20438;-77
2022/09/20 10:38:35;;;;;;;3.60;0.80;;;16.00;99.90;;;;;;6181829;23;20085;-74
2022/09/20 10:44:18;;;;;;;2.95;0.60;;;16.20;99.90;;;;;;6180617;23;20036;-72
2022/09/20 10:47:03;;;;;;;2.65;0.43;;;16.20;99.90;;;;;;6180111;23;20009;-73
2022/09/20 10:49:35;;;;;;;2.03;0.60;;;16.10;99.90;;;;;;6181560;23;20001;-73
2022/09/20 10:52:30;;;;;;;3.72;0.80;;;16.10;99.90;;;;;;6180578;23;20005;-73
2022/09/20 10:55:33;;;;;;;5.22;0.63;;;16.10;99.90;;;;;;6060587;23;20086;-74
2022/09/20 10:58:29;;;;;;;2.58;0.55;;;16.20;99.90;;;;;;6061746;23;20014;-73
2022/09/20 11:01:06;;;;;;;5.18;0.82;;;16.20;99.90;;;;;;6059003;23;20033;-73
2022/09/20 11:04:10;;;;;;;3.65;1.20;;;16.30;99.90;;;;;;6060651;23;20003;-73
2022/09/20 11:07:01;;;;;;;3.55;1.08;;;16.40;99.90;;;;;;6061486;23;20429;-74
2022/09/20 11:09:33;;;;;;;5.50;1.27;;;16.30;99.90;;;;;;6061100;23;20006;-73
2022/09/20 11:12:34;;;;;;;4.93;1.00;;;16.40;99.90;;;;;;6060330;23;20010;-73
2022/09/20 11:15:15;;;;;;;5.47;1.63;;;16.80;99.90;;;;;;6059222;23;20010;-73
2022/09/20 11:17:47;;;;;;;5.43;0.82;;;16.40;99.90;;;;;;6060240;23;20411;-73
2022/09/20 11:20:19;;;;;;;2.38;0.82;;;16.40;99.90;;;;;;6060598;23;20021;-73
2022/09/20 11:22:57;;;;;;;6.80;1.05;;;16.30;99.90;;;;;;6059971;23;20015;-73
2022/09/20 11:25:43;;;;;;;2.35;0.57;;;16.50;99.90;;;;;;6061207;23;20421;-72
2022/09/20 11:28:20;;;;;;;4.38;0.95;;;16.50;99.90;;;;;;6060169;23;20606;-73
2022/09/20 11:31:16;;;;;;;1.45;0.40;;;16.50;99.90;;;;;;6062021;23;20055;-73
2022/09/20 11:33:48;;;;;;;4.18;0.55;;;16.60;99.90;;;;;;6181616;23;20024;-73
2022/09/20 11:36:26;;;;;;;5.45;0.88;;;19.20;99.90;;;;;;6181439;23;20419;-73
2022/09/20 11:39:09;;;;;;;2.15;0.60;;;16.80;99.80;;;;;;6180015;23;19997;-73
2022/09/20 11:41:36;;;;;;;5.75;0.50;;;16.90;99.90;;;;;;6180105;23;20096;-73
2022/09/20 11:44:06;;;;;;;4.63;0.88;;;18.10;99.90;;;;;;6179166;23;20008;-73
2022/09/20 11:46:58;;;;;;;7.60;0.65;;;17.10;99.90;;;;;;6181399;23;19997;-74
2022/09/20 11:49:32;;;;;;;2.67;0.50;;;16.90;99.60;;;;;;6181576;23;20029;-73
2022/09/20 11:51:58;;;;;;;3.13;0.88;;;17.00;99.90;;;;;;6180943;23;20001;-71
2022/09/20 11:54:47;;;;;;;2.40;0.70;;;17.00;99.90;;;;;;6183434;23;20005;-74
2022/09/20 11:57:16;;;;;;;5.15;0.90;;;17.00;99.90;;;;;;6183017;23;20329;-72
2022/09/20 11:59:50;;;;;;;4.65;0.65;;;17.10;99.70;;;;;;6181495;23;20032;-73
2022/09/20 12:02:18;;;;;;;;;;;16.80;99.90;;;;;;6182083;23;20005;-72
2022/09/20 12:04:48;;;;;;;4.80;0.57;;;16.50;99.90;;;;;;6182099;23;19931;-72
2022/09/20 12:07:43;;;;;;;4.70;0.68;;;16.50;99.90;;;;;;6183258;23;20047;-72
2022/09/20 12:10:22;;;;;;;7.47;0.93;;;16.50;99.90;;;;;;6181412;23;20021;-73
2022/09/20 12:13:14;;;;;;;4.95;0.80;;;16.60;99.90;;;;;;6181915;23;20009;-72
2022/09/20 12:15:40;;;;;;;2.15;0.40;;;16.70;99.80;;;;;;6182619;23;20009;-74
2022/09/20 12:18:26;;;;;;;1.65;0.50;;;16.70;99.90;;;;;;6183072;23;20012;-74
2022/09/20 12:20:55;;;;;;;5.13;1.02;;;16.90;99.30;;;;;;6181761;23;20394;-76
2022/09/20 12:23:39;;;;;;;4.43;1.33;;;16.80;99.60;;;;;;6182461;23;19999;-75
2022/09/20 12:26:04;;;;;;;;;;;16.70;99.30;;;;;;6183190;23;20497;-75
2022/09/20 12:28:35;;;;;;;2.78;0.63;;;16.80;99.50;;;;;;6181119;23;19939;-75
2022/09/20 12:31:32;;;;;;;2.15;0.80;;;16.80;99.20;;;;;;6180372;23;20595;-74
2022/09/20 12:34:09;;;;;;;5.93;0.80;;;17.30;98.60;;;;;;6181607;23;20032;-73
2022/09/20 12:36:54;;;;;;;6.32;0.90;;;16.80;98.00;;;;;;6183486;23;20001;-73
2022/09/20 12:39:30;;;;;;;3.45;0.57;;;16.80;98.00;;;;;;6181727;23;20430;-75
2022/09/20 12:41:57;;;;;;;3.58;0.55;;;16.80;98.70;;;;;;6179365;23;20005;-76
2022/09/20 12:44:40;;;;;;;3.30;0.73;;;17.00;98.50;;;;;;6181390;23;20009;-74
2022/09/20 12:47:09;;;;;;;4.82;0.57;;;17.20;97.70;;;;;;6183049;23;20005;-73
2022/09/20 12:52:55;;;;;;;6.15;1.40;;;17.30;97.10;;;;;;6181851;23;20567;-74
2022/09/20 12:55:37;;;;;;;4.55;0.60;;;17.40;96.70;;;;;;6181654;23;20001;-75
2022/09/20 12:58:10;;;;;;;3.97;1.10;;;17.40;96.70;;;;;;6181405;23;20001;-75
2022/09/20 13:00:39;;;;;;;5.70;2.05;;;17.50;96.50;;;;;;6182853;23;20017;-74
2022/09/20 13:03:14;;;;;;;5.70;0.70;;;17.40;97.00;;;;;;6181839;23;20015;-74
2022/09/20 13:05:44;;;;;;;2.75;0.60;;;17.40;97.00;;;;;;6180966;23;19997;-75
2022/09/20 13:08:24;;;;;;;6.53;0.70;;;17.30;97.00;;;;;;6182482;23;20001;-75
2022/09/20 13:10:59;;;;;;;3.72;0.73;;;17.60;95.90;;;;;;6182694;23;20017;-74
2022/09/20 13:13:32;;;;;;;3.00;1.00;;;17.20;97.10;;;;;;6181567;23;20001;-74
2022/09/20 13:16:00;;;;;;;2.35;0.80;;;17.40;97.10;;;;;;6181518;23;20068;-74
2022/09/20 13:18:27;;;;;;;3.83;0.70;;;17.30;96.80;;;;;;6182644;23;20004;-74
2022/09/20 13:20:55;;;;;;;5.10;0.90;;;17.30;96.60;;;;;;6181866;23;20001;-75
2022/09/20 13:23:29;;;;;;;2.13;0.60;;;17.30;96.50;;;;;;6181744;23;20001;-75
2022/09/20 13:26:01;;;;;;;4.25;1.17;;;17.30;96.90;;;;;;6181710;23;20072;-74
2022/09/20 13:28:59;;;;;;;4.60;0.60;;;17.00;96.60;;;;;;6179809;23;20528;-74
2022/09/20 13:31:27;;;;;;;5.20;0.57;;;16.80;97.00;;;;;;6113829;23;20009;-74
2022/09/20 13:33:53;;;;;;;3.00;0.80;;;16.70;96.70;;;;;;6181861;23;20008;-73
2022/09/20 13:36:26;;;;;;;3.72;0.50;;;16.50;96.80;;;;;;6182658;23;20005;-74
2022/09/20 13:38:54;;;;;;;2.95;0.65;;;16.20;98.10;;;;;;6181086;23;20410;-72
2022/09/20 13:41:20;;;;;;;3.53;0.57;;;15.90;98.70;;;;;;6180291;23;20334;-72
2022/09/20 13:43:48;;;;;;;7.45;0.60;;;15.70;99.10;;;;;;6180669;23;20035;-72
2022/09/20 13:46:29;;;;;;;8.23;0.68;;;16.10;99.50;;;;;;6181401;23;20001;-72
2022/09/20 13:49:19;;;;;;;3.22;0.88;;;15.80;99.90;;;;;;6180626;23;20001;-72
2022/09/20 13:51:47;;;;;;;4.35;1.00;;;15.80;99.40;;;;;;6179774;23;20498;-72
2022/09/20 13:54:30;;;;;;;3.60;0.60;;;16.00;99.50;;;;;;6181901;23;20495;-72
2022/09/20 13:57:05;;;;;;;7.63;0.70;;;16.00;98.80;;;;;;6181889;23;20067;-72